Time;durP1;ratioP1;P1;durP2;ratioP2;P2;SDS_P1;SDS_P2;PMS_P1;PMS_P2;Temp;Humidity;BMP_temperature;BMP_pressure;BME280_temperature;BME280_humidity;BME280_pressure;Samples;Min_cycle;Max_cycle;Signal;HPM_P1;HPM_P2
2021/01/14 00:00:47;;;;;;;13.98;7.95;;;;;;;4.40;100.00;100394.53;4999627;28;20088;-69
2021/01/14 00:03:30;;;;;;;12.15;8.18;;;;;;;4.29;100.00;100389.13;5013745;28;20100;-69
2021/01/14 00:06:14;;;;;;;10.68;8.10;;;;;;;4.22;100.00;100393.09;5014913;28;20466;-69
2021/01/14 00:08:58;;;;;;;11.70;8.55;;;;;;;4.14;100.00;100387.47;5013842;28;20057;-69
2021/01/14 00:11:45;;;;;;;12.02;8.13;;;;;;;4.10;100.00;100380.72;5013825;28;20453;-69
2021/01/14 00:14:29;;;;;;;15.68;9.32;;;;;;;4.12;100.00;100382.34;5013524;28;20063;-69
2021/01/14 00:17:13;;;;;;;15.05;9.15;;;;;;;4.05;100.00;100388.13;4999849;28;20104;-69
2021/01/14 00:19:57;;;;;;;14.65;9.07;;;;;;;4.06;100.00;100395.09;5014515;28;20041;-69
2021/01/14 00:22:41;;;;;;;13.90;8.60;;;;;;;4.07;100.00;100399.41;5013482;28;20414;-69
2021/01/14 00:25:26;;;;;;;13.93;7.72;;;;;;;4.09;100.00;100405.44;5014266;28;20052;-70
2021/01/14 00:28:10;;;;;;;12.40;8.15;;;;;;;4.10;100.00;100400.06;5014517;28;20084;-70
2021/01/14 00:30:54;;;;;;;12.60;8.00;;;;;;;4.11;100.00;100404.38;5013215;28;20104;-71
2021/01/14 00:33:38;;;;;;;13.32;8.13;;;;;;;4.11;100.00;100419.34;5013304;28;20048;-71
2021/01/14 00:36:30;;;;;;;13.82;7.70;;;;;;;4.04;100.00;100420.72;5014341;28;20514;-70
2021/01/14 00:39:15;;;;;;;9.07;7.05;;;;;;;4.03;100.00;100413.72;5014214;28;20041;-70
2021/01/14 00:41:58;;;;;;;10.48;7.50;;;;;;;3.95;100.00;100424.78;5014254;28;20095;-71
2021/01/14 00:44:42;;;;;;;10.32;6.80;;;;;;;4.00;100.00;100419.22;5013262;28;20097;-71
2021/01/14 00:47:27;;;;;;;10.32;7.35;;;;;;;4.01;100.00;100419.13;5013130;28;20080;-70
2021/01/14 00:50:11;;;;;;;10.82;6.95;;;;;;;4.05;100.00;100422.41;5012936;28;20485;-70
2021/01/14 00:52:55;;;;;;;9.85;6.93;;;;;;;4.03;100.00;100429.56;5013223;28;20064;-71
2021/01/14 00:55:39;;;;;;;;;;;;;;;4.01;100.00;100426.16;5014403;28;20112;-70
2021/01/14 00:58:23;;;;;;;10.27;7.28;;;;;;;3.97;100.00;100422.06;5013994;28;20066;-71
2021/01/14 01:01:07;;;;;;;9.25;5.68;;;;;;;3.98;100.00;100429.84;5012518;28;20048;-71
2021/01/14 01:03:52;;;;;;;7.57;5.45;;;;;;;4.07;100.00;100425.78;5012705;28;20068;-71
2021/01/14 01:06:38;;;;;;;9.38;6.10;;;;;;;4.06;100.00;100447.84;5012708;28;20092;-70
2021/01/14 01:09:23;;;;;;;8.07;5.43;;;;;;;4.04;100.00;100452.38;5012784;28;20056;-71
2021/01/14 01:12:10;;;;;;;7.40;5.03;;;;;;;4.04;100.00;100436.53;5012804;28;20068;-70
2021/01/14 01:14:54;;;;;;;5.90;4.25;;;;;;;4.02;100.00;100433.13;5013792;28;20081;-70
2021/01/14 01:17:38;;;;;;;5.55;3.92;;;;;;;3.97;100.00;100435.25;5013501;28;20541;-70
2021/01/14 01:20:22;;;;;;;4.22;3.40;;;;;;;3.97;100.00;100451.91;5012738;28;20160;-70
2021/01/14 01:23:06;;;;;;;4.95;3.50;;;;;;;3.90;100.00;100441.84;5012426;28;20119;-70
2021/01/14 01:25:51;;;;;;;4.72;3.40;;;;;;;3.87;100.00;100434.13;4998930;28;20103;-70
2021/01/14 01:28:35;;;;;;;2.90;2.03;;;;;;;3.87;100.00;100432.31;4998753;28;20458;-69
2021/01/14 01:31:19;;;;;;;3.97;2.42;;;;;;;3.88;100.00;100441.09;5013350;28;20565;-69
2021/01/14 01:34:03;;;;;;;3.45;2.65;;;;;;;3.87;100.00;100439.41;5013293;28;20045;-69
2021/01/14 01:36:51;;;;;;;3.50;2.33;;;;;;;3.78;100.00;100440.84;5013559;28;20166;-68
2021/01/14 01:39:35;;;;;;;3.08;1.92;;;;;;;3.77;100.00;100444.41;5012145;28;20184;-70
2021/01/14 01:42:19;;;;;;;3.00;1.58;;;;;;;3.83;100.00;100449.31;5012252;28;20466;-68
2021/01/14 01:45:03;;;;;;;3.05;1.90;;;;;;;3.79;100.00;100446.97;5013520;28;20108;-68
2021/01/14 01:47:48;;;;;;;2.78;1.90;;;;;;;3.79;100.00;100447.81;5013752;28;20096;-68
2021/01/14 01:50:32;;;;;;;3.53;1.80;;;;;;;3.70;100.00;100452.81;4998634;28;20076;-70
2021/01/14 01:53:16;;;;;;;3.35;1.70;;;;;;;3.75;100.00;100451.56;5013461;28;20049;-68
2021/01/14 01:56:00;;;;;;;2.15;1.75;;;;;;;3.74;100.00;100446.41;5012201;28;20056;-68
2021/01/14 01:58:45;;;;;;;2.53;1.60;;;;;;;3.77;100.00;100454.94;5012440;28;20052;-69
2021/01/14 02:01:29;;;;;;;2.35;1.52;;;;;;;3.74;100.00;100454.34;4998025;28;20053;-70
2021/01/14 02:04:14;;;;;;;3.55;1.60;;;;;;;3.73;100.00;100463.16;5012422;28;20553;-70
2021/01/14 02:07:02;;;;;;;2.53;1.67;;;;;;;3.69;100.00;100470.44;5017121;28;20100;-70
2021/01/14 02:09:48;;;;;;;4.57;1.50;;;;;;;3.70;100.00;100473.91;5016002;28;20123;-70
2021/01/14 02:12:36;;;;;;;3.30;1.70;;;;;;;3.64;100.00;100463.75;5015997;28;20096;-70
2021/01/14 02:15:22;;;;;;;2.00;1.55;;;;;;;3.62;100.00;100455.06;5016014;28;20072;-70
2021/01/14 02:18:07;;;;;;;2.60;1.80;;;;;;;3.59;99.63;100465.81;5016661;28;20084;-70
2021/01/14 02:20:54;;;;;;;3.00;1.58;;;;;;;3.54;99.49;100470.56;5001880;28;20048;-69
2021/01/14 02:23:51;;;;;;;2.70;1.63;;;;;;;3.48;99.95;100478.81;5015599;28;20077;-70
2021/01/14 02:26:37;;;;;;;2.78;1.70;;;;;;;3.45;99.85;100473.75;5015653;28;20083;-70
2021/01/14 02:29:21;;;;;;;2.38;1.60;;;;;;;3.45;99.38;100469.31;5015769;28;20152;-70
2021/01/14 02:32:16;;;;;;;2.47;1.75;;;;;;;3.42;99.32;100472.16;5016692;28;20493;-70
2021/01/14 02:35:00;;;;;;;2.33;1.75;;;;;;;3.41;99.90;100477.50;5016688;28;20510;-70
2021/01/14 02:37:44;;;;;;;4.03;2.03;;;;;;;3.36;100.00;100480.41;5015597;28;20040;-70
2021/01/14 02:40:28;;;;;;;3.10;1.95;;;;;;;3.37;100.00;100491.81;5016205;28;20044;-70
2021/01/14 02:43:12;;;;;;;;;;;;;;;3.34;100.00;100492.00;5015586;28;20165;-70
2021/01/14 02:45:57;;;;;;;2.80;1.85;;;;;;;3.32;100.00;100493.88;5015438;28;19921;-70
2021/01/14 02:48:45;;;;;;;2.58;1.83;;;;;;;3.35;100.00;100489.25;5015134;28;20040;-70
2021/01/14 02:51:54;;;;;;;4.30;2.10;;;;;;;3.30;100.00;100479.94;5014964;28;20104;-70
2021/01/14 02:54:39;;;;;;;4.82;2.00;;;;;;;3.22;100.00;100482.19;5015285;28;20048;-70
2021/01/14 02:57:25;;;;;;;1.65;1.33;;;;;;;3.14;100.00;100479.19;5015223;28;20096;-70
2021/01/14 03:00:10;;;;;;;3.33;1.98;;;;;;;3.13;100.00;100490.69;5015793;28;20065;-70
2021/01/14 03:02:54;;;;;;;3.83;1.75;;;;;;;3.04;100.00;100493.88;5001126;28;20064;-70
2021/01/14 03:05:38;;;;;;;2.70;2.00;;;;;;;3.04;100.00;100501.75;5014839;28;20056;-70
2021/01/14 03:08:22;;;;;;;2.88;1.98;;;;;;;2.98;100.00;100505.59;5015993;28;20096;-70
2021/01/14 03:11:06;;;;;;;3.33;2.40;;;;;;;3.01;100.00;100501.94;5014718;28;20108;-70
2021/01/14 03:13:50;;;;;;;2.92;2.08;;;;;;;2.92;100.00;100510.41;5014897;28;20168;-70
2021/01/14 03:16:40;;;;;;;2.58;2.10;;;;;;;2.86;100.00;100502.84;5014847;28;20523;-70
2021/01/14 03:19:24;;;;;;;3.33;2.25;;;;;;;2.84;100.00;100512.63;5014630;28;20561;-70
2021/01/14 03:22:08;;;;;;;2.38;2.17;;;;;;;2.86;100.00;100516.00;5014530;28;20092;-70
2021/01/14 03:24:52;;;;;;;5.55;2.40;;;;;;;2.81;100.00;100520.69;5015377;28;20513;-70
2021/01/14 03:27:40;;;;;;;3.22;2.10;;;;;;;2.78;100.00;100519.09;5014478;28;20068;-70
2021/01/14 03:30:24;;;;;;;2.88;2.10;;;;;;;2.74;100.00;100522.81;5014397;28;20053;-70
2021/01/14 03:33:09;;;;;;;2.60;1.73;;;;;;;2.79;100.00;100510.25;5014579;28;20052;-70
2021/01/14 03:35:54;;;;;;;4.18;2.20;;;;;;;2.82;100.00;100515.34;5015443;28;20052;-70
2021/01/14 03:38:38;;;;;;;5.72;2.47;;;;;;;2.77;100.00;100527.06;5015730;28;20061;-70
2021/01/14 03:41:22;;;;;;;;;;;;;;;2.81;100.00;100518.06;5015488;28;20096;-70
2021/01/14 03:44:06;;;;;;;2.17;1.80;;;;;;;2.79;100.00;100512.91;5015163;28;19948;-70
2021/01/14 03:46:51;;;;;;;4.53;2.40;;;;;;;2.75;100.00;100523.69;5015000;28;20049;-70
2021/01/14 03:49:36;;;;;;;5.40;2.50;;;;;;;2.73;100.00;100522.94;5000343;28;20419;-70
2021/01/14 03:52:20;;;;;;;3.63;2.08;;;;;;;2.77;100.00;100533.19;5014209;28;20056;-70
2021/01/14 03:55:04;;;;;;;5.57;2.47;;;;;;;2.71;100.00;100535.34;5000008;28;20057;-70
2021/01/14 03:57:48;;;;;;;5.72;2.42;;;;;;;2.72;100.00;100537.88;5014095;28;20048;-70
2021/01/14 04:00:33;;;;;;;;;;;;;;;2.69;100.00;100545.09;5014906;28;20101;-70
2021/01/14 04:03:17;;;;;;;4.65;2.80;;;;;;;2.70;100.00;100544.16;5013993;28;19923;-70
2021/01/14 04:06:01;;;;;;;6.47;1.98;;;;;;;2.68;100.00;100548.66;5014650;28;20438;-69
2021/01/14 04:08:45;;;;;;;5.03;2.70;;;;;;;2.64;100.00;100547.16;5013603;28;20119;-69
2021/01/14 04:11:29;;;;;;;;;;;;;;;2.67;100.00;100554.88;5013929;28;20521;-69
2021/01/14 04:14:13;;;;;;;3.77;2.37;;;;;;;2.63;100.00;100566.53;5013577;28;19936;-70
2021/01/14 04:16:58;;;;;;;4.57;2.50;;;;;;;2.57;100.00;100574.75;5013774;28;20082;-70
2021/01/14 04:19:42;;;;;;;5.82;2.60;;;;;;;2.63;100.00;100563.88;5013544;28;20119;-70
2021/01/14 04:22:26;;;;;;;6.00;2.42;;;;;;;2.62;100.00;100559.56;5013593;28;20056;-69
2021/01/14 04:25:10;;;;;;;3.95;2.70;;;;;;;2.57;100.00;100556.31;5014570;28;20052;-70
2021/01/14 04:27:54;;;;;;;4.55;2.95;;;;;;;2.53;100.00;100555.66;5013359;28;20073;-69
2021/01/14 04:30:38;;;;;;;5.50;2.63;;;;;;;2.53;100.00;100557.44;5013490;28;20066;-69
2021/01/14 04:33:22;;;;;;;6.68;3.40;;;;;;;2.46;100.00;100553.47;5013223;28;20127;-69
2021/01/14 04:36:06;;;;;;;4.68;2.13;;;;;;;2.42;100.00;100557.22;5014419;28;20048;-69
2021/01/14 04:38:50;;;;;;;;;;;;;;;2.40;100.00;100552.97;5013863;28;20056;-69
2021/01/14 04:41:48;;;;;;;7.13;2.80;;;;;;;2.37;100.00;100559.22;4999317;28;19920;-68
2021/01/14 04:44:32;;;;;;;6.40;3.78;;;;;;;2.32;100.00;100565.69;5014023;28;20112;-68
2021/01/14 04:47:16;;;;;;;5.68;3.45;;;;;;;2.30;100.00;100567.56;5013242;28;20068;-68
2021/01/14 04:49:59;;;;;;;6.72;3.92;;;;;;;2.28;100.00;100570.25;5014080;28;20049;-69
2021/01/14 04:52:47;;;;;;;6.40;4.05;;;;;;;2.32;100.00;100571.81;5014126;28;20471;-68
2021/01/14 04:55:43;;;;;;;7.63;4.45;;;;;;;2.32;100.00;100582.34;5013872;28;20057;-68
2021/01/14 04:58:27;;;;;;;6.95;4.78;;;;;;;2.26;100.00;100573.94;5014082;28;20509;-67
2021/01/14 05:01:24;;;;;;;8.20;4.90;;;;;;;2.24;100.00;100589.78;5102482;23;20057;-68
2021/01/14 05:04:10;;;;;;;9.40;4.70;;;;;;;2.23;100.00;100577.59;4993297;28;20185;-67
2021/01/14 05:06:57;;;;;;;6.43;4.53;;;;;;;2.21;100.00;100595.22;4994027;28;20053;-68
2021/01/14 05:09:41;;;;;;;8.13;4.68;;;;;;;2.23;100.00;100603.88;5007097;28;20049;-69
2021/01/14 05:12:25;;;;;;;;;;;;;;;2.17;100.00;100596.31;4975039;28;20081;-69
2021/01/14 05:15:09;;;;;;;12.23;5.03;;;;;;;2.18;100.00;100595.38;4973835;28;19920;-68
2021/01/14 05:17:58;;;;;;;10.82;5.32;;;;;;;2.14;100.00;100593.84;4987169;28;20574;-68
2021/01/14 05:20:43;;;;;;;10.20;5.32;;;;;;;2.14;100.00;100585.97;4973566;28;20415;-68
2021/01/14 05:23:28;;;;;;;12.80;5.63;;;;;;;2.11;100.00;100588.78;4973711;28;20539;-68
2021/01/14 05:26:29;;;;;;;13.10;5.65;;;;;;;2.08;100.00;100583.66;4986864;28;20079;-68
2021/01/14 05:29:20;;;;;;;8.13;5.35;;;;;;;2.05;100.00;100589.09;4987432;28;20081;-68
2021/01/14 05:32:04;;;;;;;12.77;6.43;;;;;;;2.00;100.00;100590.28;4974635;28;20086;-68
2021/01/14 05:34:48;;;;;;;10.95;7.00;;;;;;;1.98;100.00;100592.97;4987409;28;20049;-68
2021/01/14 05:37:42;;;;;;;14.55;6.80;;;;;;;1.97;100.00;100593.09;4973281;28;20053;-68
2021/01/14 05:40:28;;;;;;;10.65;6.47;;;;;;;1.97;100.00;100596.53;4989182;28;20053;-68
2021/01/14 05:43:12;;;;;;;12.65;6.72;;;;;;;1.88;100.00;100594.41;4991294;28;20519;-68
2021/01/14 05:46:11;;;;;;;;;;;;;;;1.89;100.00;100598.75;4978139;28;20054;-68
2021/01/14 05:48:57;;;;;;;11.45;6.47;;;;;;;1.90;100.00;100594.34;4977161;28;19948;-68
2021/01/14 05:51:53;;;;;;;12.98;7.47;;;;;;;1.89;100.00;100609.28;4978533;28;20105;-68
2021/01/14 05:54:39;;;;;;;11.35;6.55;;;;;;;1.83;100.00;100611.34;4977073;28;20126;-68
2021/01/14 05:57:29;;;;;;;14.90;7.22;;;;;;;1.74;100.00;100602.19;4976904;28;20427;-68
2021/01/14 06:00:14;;;;;;;13.52;7.18;;;;;;;1.70;100.00;100603.28;4977813;28;20041;-65
2021/01/14 06:02:59;;;;;;;14.80;8.38;;;;;;;1.75;100.00;100613.56;4977981;28;20077;-65
2021/01/14 06:05:43;;;;;;;15.40;8.30;;;;;;;1.72;100.00;100611.06;4977829;28;20084;-66
2021/01/14 06:08:28;;;;;;;12.93;7.57;;;;;;;1.69;100.00;100616.50;4977802;28;20052;-66
2021/01/14 06:11:22;;;;;;;12.93;7.95;;;;;;;1.64;100.00;100629.06;4976802;28;20082;-68
2021/01/14 06:14:07;;;;;;;13.80;8.68;;;;;;;1.64;100.00;100640.41;4990476;28;20060;-66
2021/01/14 06:16:51;;;;;;;15.57;8.80;;;;;;;1.63;100.00;100638.69;4976684;28;20114;-68
2021/01/14 06:19:36;;;;;;;16.10;8.85;;;;;;;1.61;100.00;100637.94;4977783;28;20054;-68
2021/01/14 06:22:20;;;;;;;11.93;7.15;;;;;;;1.58;100.00;100639.88;4990538;28;20097;-68
2021/01/14 06:25:05;;;;;;;18.92;9.30;;;;;;;1.53;100.00;100647.97;4990260;28;20068;-67
2021/01/14 06:27:55;;;;;;;17.05;10.18;;;;;;;1.55;100.00;100645.28;4990497;28;20058;-68
2021/01/14 06:31:01;;;;;;;17.38;9.90;;;;;;;1.54;100.00;100647.06;4977605;28;20113;-66
2021/01/14 06:33:45;;;;;;;12.23;6.15;;;;;;;1.53;100.00;100661.13;4990011;28;20062;-65
2021/01/14 06:36:33;;;;;;;;;;;;;;;1.53;100.00;100655.88;4976962;28;20073;-68
2021/01/14 06:39:18;;;;;;;11.23;7.03;;;;;;;1.51;100.00;100664.75;4976225;28;19921;-68
2021/01/14 06:42:13;;;;;;;14.77;8.13;;;;;;;1.49;100.00;100675.34;4976366;28;20077;-68
2021/01/14 06:44:58;;;;;;;17.17;9.50;;;;;;;1.48;100.00;100678.91;4976344;28;20050;-67
2021/01/14 06:47:46;;;;;;;15.70;8.68;;;;;;;1.51;100.00;100681.38;4989859;28;20053;-67
2021/01/14 06:50:30;;;;;;;16.60;8.38;;;;;;;1.49;100.00;100677.13;4962070;28;20050;-68
2021/01/14 06:53:20;;;;;;;16.67;9.32;;;;;;;1.50;100.00;100678.81;4975968;28;20519;-65
2021/01/14 06:56:05;;;;;;;16.83;9.80;;;;;;;1.44;100.00;100669.47;4976869;28;20046;-67
2021/01/14 06:58:50;;;;;;;16.33;9.38;;;;;;;1.38;100.00;100663.69;4976858;28;20085;-67
2021/01/14 07:01:39;;;;;;;16.70;9.07;;;;;;;1.45;100.00;100665.06;4989224;28;20045;-66
2021/01/14 07:04:43;;;;;;;17.92;9.65;;;;;;;1.43;100.00;100672.16;4989797;28;20061;-68
2021/01/14 07:07:30;;;;;;;18.98;9.10;;;;;;;1.39;100.00;100670.63;4977370;28;20515;-67
2021/01/14 07:10:15;;;;;;;18.42;9.48;;;;;;;1.42;100.00;100670.47;4975627;28;20132;-67
2021/01/14 07:13:03;;;;;;;21.13;11.00;;;;;;;1.43;100.00;100682.66;4975879;28;20534;-67
2021/01/14 07:15:49;;;;;;;16.90;9.60;;;;;;;1.49;100.00;100677.97;4976871;28;20105;-67
2021/01/14 07:18:34;;;;;;;15.05;8.48;;;;;;;1.51;100.00;100678.75;4989327;28;20530;-68
2021/01/14 07:21:43;;;;;;;17.67;9.52;;;;;;;1.49;100.00;100688.50;4976409;28;20145;-68
2021/01/14 07:24:28;;;;;;;19.92;10.75;;;;;;;1.52;100.00;100685.69;4989459;28;20058;-68
2021/01/14 07:27:13;;;;;;;20.33;10.07;;;;;;;1.55;100.00;100697.84;4976909;28;20054;-68
2021/01/14 07:29:57;;;;;;;26.15;12.43;;;;;;;1.55;100.00;100697.84;4976290;28;20050;-68
2021/01/14 07:33:06;;;;;;;23.05;10.88;;;;;;;1.58;100.00;100698.50;4975451;28;20050;-68
2021/01/14 07:35:51;;;;;;;22.80;11.65;;;;;;;1.62;100.00;100704.47;4975295;28;20065;-68
2021/01/14 07:38:46;;;;;;;19.30;10.55;;;;;;;1.64;100.00;100697.38;4976187;28;20111;-68
2021/01/14 07:41:57;;;;;;;20.73;11.45;;;;;;;1.64;100.00;100692.94;4975265;28;20562;-67
2021/01/14 07:44:48;;;;;;;21.20;10.82;;;;;;;1.67;100.00;100702.47;4976349;28;20137;-68
2021/01/14 07:47:37;;;;;;;20.30;11.10;;;;;;;1.71;100.00;100698.75;4976489;28;20050;-67
2021/01/14 07:50:27;;;;;;;15.55;10.32;;;;;;;1.85;100.00;100693.66;4976118;28;20089;-68
2021/01/14 07:53:13;;;;;;;15.88;8.45;;;;;;;1.72;100.00;100706.56;4975864;28;20407;-67
2021/01/14 07:56:26;;;;;;;15.48;8.50;;;;;;;1.64;100.00;100706.09;4975841;28;20097;-68
2021/01/14 07:59:10;;;;;;;15.50;8.45;;;;;;;1.65;100.00;100710.41;4975137;28;20045;-68
2021/01/14 08:02:04;;;;;;;18.80;8.35;;;;;;;1.66;100.00;100706.84;4975242;28;20082;-68
2021/01/14 08:04:48;;;;;;;10.32;6.95;;;;;;;1.62;100.00;100700.06;4988511;28;20069;-68
2021/01/14 08:07:33;;;;;;;12.40;7.78;;;;;;;1.54;100.00;100698.75;4988253;28;20093;-67
2021/01/14 08:10:18;;;;;;;11.95;7.45;;;;;;;1.55;100.00;100708.34;4975726;28;20080;-68
2021/01/14 08:13:04;;;;;;;10.13;5.75;;;;;;;1.56;100.00;100716.13;4975716;28;20050;-68
2021/01/14 08:15:48;;;;;;;15.05;7.82;;;;;;;1.60;100.00;100716.84;4975407;28;20052;-68
2021/01/14 08:18:33;;;;;;;9.02;6.25;;;;;;;1.62;100.00;100720.22;4988107;28;20050;-67
2021/01/14 08:21:28;;;;;;;;;;;;;;;1.56;100.00;100726.63;4974832;28;20097;-68
2021/01/14 08:24:41;;;;;;;9.93;6.30;;;;;;;1.68;100.00;100727.81;4975360;28;20358;-67
2021/01/14 08:27:34;;;;;;;10.95;5.88;;;;;;;1.66;100.00;100738.38;4987900;28;20069;-67
2021/01/14 08:30:20;;;;;;;12.32;5.82;;;;;;;1.71;100.00;100741.66;4975381;28;20106;-68
2021/01/14 08:33:08;;;;;;;10.30;5.80;;;;;;;1.70;100.00;100741.72;4975134;28;20054;-68
2021/01/14 08:36:03;;;;;;;10.02;5.53;;;;;;;1.81;100.00;100742.03;4988067;28;20061;-68
2021/01/14 08:38:47;;;;;;;10.82;5.32;;;;;;;1.75;100.00;100747.63;4975095;28;20412;-68
2021/01/14 08:41:35;;;;;;;9.13;4.43;;;;;;;1.69;100.00;100750.53;4987955;28;20100;-67
2021/01/14 08:44:28;;;;;;;8.15;4.70;;;;;;;1.67;100.00;100755.84;4973961;28;20097;-67
2021/01/14 08:47:12;;;;;;;9.18;4.57;;;;;;;1.63;100.00;100751.69;4974522;28;20053;-67
2021/01/14 08:49:57;;;;;;;7.63;4.78;;;;;;;1.64;100.00;100745.50;4987574;28;20054;-67
2021/01/14 08:52:45;;;;;;;12.90;6.07;;;;;;;1.69;100.00;100753.16;4974056;28;20560;-68
2021/01/14 08:55:30;;;;;;;11.25;6.32;;;;;;;1.58;100.00;100755.47;4975035;28;20054;-67
2021/01/14 08:58:15;;;;;;;9.95;6.20;;;;;;;1.57;100.00;100759.03;4974956;28;20412;-67
2021/01/14 09:00:59;;;;;;;15.70;7.93;;;;;;;1.53;100.00;100758.34;4974602;28;20065;-68
2021/01/14 09:03:45;;;;;;;11.25;6.25;;;;;;;1.54;100.00;100760.03;4974652;28;20423;-67
2021/01/14 09:06:37;;;;;;;11.35;6.03;;;;;;;1.49;100.00;100758.56;4974898;28;20053;-68
2021/01/14 09:09:21;;;;;;;10.60;6.13;;;;;;;1.44;100.00;100769.28;4974939;28;20053;-68
2021/01/14 09:12:05;;;;;;;15.45;7.10;;;;;;;1.50;100.00;100762.88;4974534;28;20132;-68
2021/01/14 09:14:50;;;;;;;11.93;6.80;;;;;;;1.47;100.00;100771.75;4974000;28;20054;-67
2021/01/14 09:17:34;;;;;;;13.70;7.25;;;;;;;1.49;100.00;100772.56;4987204;28;20078;-68
2021/01/14 09:20:19;;;;;;;11.93;7.03;;;;;;;1.42;100.00;100797.41;4974553;28;20130;-68
2021/01/14 09:23:19;;;;;;;;;;;;;;;1.41;100.00;100800.97;4987605;28;20530;-68
2021/01/14 09:26:05;;;;;;;13.25;7.60;;;;;;;1.34;100.00;100794.31;4973842;28;20298;-68
2021/01/14 09:28:51;;;;;;;14.55;7.60;;;;;;;1.36;100.00;100802.13;4960352;28;20053;-68
2021/01/14 09:31:35;;;;;;;12.20;7.18;;;;;;;1.35;100.00;100801.25;4987400;28;20049;-67
2021/01/14 09:34:22;;;;;;;13.13;5.97;;;;;;;1.36;100.00;100805.59;4987338;28;20049;-68
2021/01/14 09:37:17;;;;;;;10.20;6.03;;;;;;;1.30;100.00;100805.03;4974590;28;20069;-68
2021/01/14 09:40:10;;;;;;;12.82;6.90;;;;;;;1.30;100.00;100808.53;4987240;28;20053;-68
2021/01/14 09:42:58;;;;;;;12.43;5.80;;;;;;;1.25;100.00;100807.88;4987444;28;20400;-68
2021/01/14 09:45:42;;;;;;;11.35;6.47;;;;;;;1.29;100.00;100811.22;4974581;28;20159;-68
2021/01/14 09:48:26;;;;;;;;;;;;;;;1.24;100.00;100800.91;4974039;28;20057;-68
2021/01/14 09:51:11;;;;;;;12.48;6.95;;;;;;;1.29;100.00;100812.06;4974300;28;20013;-68
2021/01/14 09:53:56;;;;;;;12.90;6.68;;;;;;;1.36;100.00;100810.84;4973476;28;20046;-68
2021/01/14 09:56:45;;;;;;;10.45;6.28;;;;;;;1.35;100.00;100810.94;4974209;28;20506;-69
2021/01/14 09:59:43;;;;;;;10.55;5.75;;;;;;;1.31;100.00;100820.72;4973445;28;20169;-69
2021/01/14 10:02:29;;;;;;;12.90;6.75;;;;;;;1.31;100.00;100823.34;4986323;28;20106;-68
2021/01/14 10:05:14;;;;;;;14.15;6.97;;;;;;;1.36;100.00;100826.59;4987019;28;20541;-68
2021/01/14 10:08:00;;;;;;;10.48;6.13;;;;;;;1.33;100.00;100832.00;4973300;28;20053;-67
2021/01/14 10:10:44;;;;;;;12.80;6.35;;;;;;;1.32;100.00;100830.31;4986708;28;20069;-68
2021/01/14 10:13:28;;;;;;;;;;;;;;;1.40;100.00;100838.69;4987343;28;20105;-68
2021/01/14 10:16:12;;;;;;;10.70;6.63;;;;;;;1.43;100.00;100835.91;4974053;28;19921;-68
2021/01/14 10:19:15;;;;;;;10.73;6.85;;;;;;;1.41;100.00;100853.50;4973901;28;20340;-67
2021/01/14 10:22:05;;;;;;;14.82;6.57;;;;;;;1.41;100.00;100853.50;4973038;28;20050;-67
2021/01/14 10:24:48;;;;;;;12.48;7.15;;;;;;;1.44;100.00;100848.09;4986940;28;20100;-68
2021/01/14 10:27:33;;;;;;;8.43;5.40;;;;;;;1.36;100.00;100855.50;4990471;28;20106;-68
2021/01/14 10:30:22;;;;;;;11.30;6.03;;;;;;;1.38;100.00;100866.81;4963227;28;20119;-68
2021/01/14 10:33:06;;;;;;;11.25;6.13;;;;;;;1.35;100.00;100873.97;4976398;28;20053;-68
2021/01/14 10:35:54;;;;;;;9.90;6.97;;;;;;;1.39;100.00;100871.13;4976551;28;20141;-68
2021/01/14 10:38:50;;;;;;;9.10;6.35;;;;;;;1.38;100.00;100877.31;4977651;28;20416;-68
2021/01/14 10:41:34;;;;;;;9.40;6.45;;;;;;;1.46;100.00;100876.94;4989765;28;20057;-67
2021/01/14 10:44:18;;;;;;;10.23;6.00;;;;;;;1.41;100.00;100882.41;4977454;28;20503;-68
2021/01/14 10:47:02;;;;;;;;;;;;;;;1.44;100.00;100874.38;4990436;28;20046;-68
2021/01/14 10:49:46;;;;;;;10.90;6.30;;;;;;;1.45;100.00;100870.81;4977342;28;20330;-69
2021/01/14 10:52:30;;;;;;;9.60;5.93;;;;;;;1.45;100.00;100872.63;4977057;28;20082;-69
2021/01/14 10:55:15;;;;;;;9.07;6.05;;;;;;;1.46;100.00;100875.16;4989888;28;20097;-69
2021/01/14 10:58:00;;;;;;;10.32;5.82;;;;;;;1.55;100.00;100879.13;4976120;28;20054;-69
2021/01/14 11:00:44;;;;;;;9.75;6.28;;;;;;;1.58;100.00;100874.56;4975486;28;20523;-69
2021/01/14 11:03:28;;;;;;;;;;;;;;;1.47;100.00;100876.00;4990223;28;20057;-69
2021/01/14 11:06:27;;;;;;;11.05;6.63;;;;;;;1.50;100.00;100868.84;4976361;28;20326;-69
2021/01/14 11:09:11;;;;;;;12.35;6.50;;;;;;;1.53;100.00;100873.94;4976257;28;20101;-69
2021/01/14 11:12:05;;;;;;;14.10;7.30;;;;;;;1.61;100.00;100873.56;4989265;28;20086;-69
2021/01/14 11:14:49;;;;;;;10.43;6.13;;;;;;;1.61;100.00;100871.81;4975701;28;20093;-69
2021/01/14 11:17:33;;;;;;;;;;;;;;;1.51;100.00;100865.28;4989735;28;20137;-68
2021/01/14 11:20:17;;;;;;;9.10;5.43;;;;;;;1.44;100.00;100858.63;4976649;28;19921;-69
2021/01/14 11:23:01;;;;;;;10.75;6.40;;;;;;;1.44;100.00;100853.34;4976515;28;20081;-69
2021/01/14 11:25:45;;;;;;;11.20;6.15;;;;;;;1.45;100.00;100856.84;4989255;28;20125;-69
2021/01/14 11:28:30;;;;;;;;;;;;;;;1.54;100.00;100854.63;4976088;28;20125;-69
2021/01/14 11:31:15;;;;;;;10.15;6.32;;;;;;;1.58;100.00;100850.91;4975344;28;19921;-69
2021/01/14 11:34:00;;;;;;;12.70;6.75;;;;;;;1.67;100.00;100847.00;4976492;28;20050;-68
2021/01/14 11:36:44;;;;;;;11.15;6.68;;;;;;;1.58;100.00;100840.41;4976232;28;20574;-69
2021/01/14 11:39:27;;;;;;;10.85;6.55;;;;;;;1.59;100.00;100841.25;4976313;28;20516;-69
2021/01/14 11:42:11;;;;;;;10.93;5.82;;;;;;;1.57;100.00;100828.19;4988820;28;20077;-68
2021/01/14 11:44:55;;;;;;;9.70;5.78;;;;;;;1.62;100.00;100823.56;4975392;28;20603;-68
2021/01/14 11:47:39;;;;;;;10.52;5.65;;;;;;;1.62;100.00;100833.22;4976299;28;20123;-68
2021/01/14 11:50:23;;;;;;;10.02;5.72;;;;;;;1.60;100.00;100828.06;4988596;28;20066;-68
2021/01/14 11:53:07;;;;;;;11.35;6.25;;;;;;;1.65;100.00;100823.41;4976185;28;20101;-69
2021/01/14 11:55:52;;;;;;;11.93;6.18;;;;;;;1.73;100.00;100818.63;4988842;28;20472;-69
2021/01/14 11:58:36;;;;;;;11.57;6.70;;;;;;;1.79;100.00;100820.97;4975818;28;20054;-69
2021/01/14 12:01:23;;;;;;;11.93;7.03;;;;;;;1.81;100.00;100816.50;4988300;28;20050;-69
2021/01/14 12:04:07;;;;;;;10.45;6.72;;;;;;;1.82;100.00;100810.31;4975666;28;20078;-69
2021/01/14 12:06:51;;;;;;;11.90;6.00;;;;;;;1.70;100.00;100813.53;4975829;28;20049;-68
2021/01/14 12:09:35;;;;;;;7.97;5.28;;;;;;;1.68;100.00;100802.22;4974940;28;20049;-68
2021/01/14 12:12:19;;;;;;;10.27;6.13;;;;;;;1.69;100.00;100800.47;4975526;28;20073;-68
2021/01/14 12:15:05;;;;;;;13.65;6.25;;;;;;;1.77;100.00;100808.84;4988751;28;20065;-68
2021/01/14 12:17:49;;;;;;;10.13;5.78;;;;;;;1.82;100.00;100802.41;4988719;28;20054;-68
2021/01/14 12:20:33;;;;;;;9.77;6.20;;;;;;;1.83;100.00;100804.13;4975704;28;20062;-68
2021/01/14 12:23:16;;;;;;;12.00;6.53;;;;;;;1.89;100.00;100811.72;4988345;28;20138;-69
2021/01/14 12:26:00;;;;;;;11.55;6.45;;;;;;;1.93;100.00;100809.75;4975502;28;20574;-69
2021/01/14 12:28:45;;;;;;;10.10;6.18;;;;;;;1.98;100.00;100813.84;4975158;28;20053;-69
2021/01/14 12:31:35;;;;;;;10.95;6.68;;;;;;;2.05;100.00;100812.63;4974234;28;20620;-69
2021/01/14 12:34:19;;;;;;;8.43;6.03;;;;;;;2.11;100.00;100809.69;4987945;28;20089;-68
2021/01/14 12:37:03;;;;;;;11.15;6.32;;;;;;;2.13;100.00;100807.81;4975333;28;20121;-68
2021/01/14 12:39:48;;;;;;;11.57;6.07;;;;;;;2.17;100.00;100801.47;4974326;28;20054;-68
2021/01/14 12:42:31;;;;;;;10.40;6.45;;;;;;;2.27;100.00;100805.31;4975028;28;20057;-68
2021/01/14 12:45:15;;;;;;;9.40;6.03;;;;;;;2.27;100.00;100800.06;4974177;28;20113;-68
2021/01/14 12:47:59;;;;;;;9.13;5.65;;;;;;;2.37;100.00;100800.44;4960306;28;20472;-68
2021/01/14 12:50:43;;;;;;;8.98;5.70;;;;;;;2.35;100.00;100797.88;4987116;28;20045;-68
2021/01/14 12:53:27;;;;;;;7.95;5.35;;;;;;;2.33;100.00;100789.22;4973834;28;20463;-68